Time;durP1;ratioP1;P1;durP2;ratioP2;P2;SDS_P1;SDS_P2;PMS_P1;PMS_P2;Temp;Humidity;BMP_temperature;BMP_pressure;BME280_temperature;BME280_humidity;BME280_pressure;Samples;Min_cycle;Max_cycle;Signal;HPM_P1;HPM_P2
2021/10/28 00:14:29;;;;;;;;;7.00;6.00;;;;;;;;5083824;27;112251;-81
2021/10/28 00:16:57;;;;;;;;;6.00;6.00;;;;;;;;5084080;27;112088;-81
2021/10/28 00:19:23;;;;;;;;;1.50;1.50;;;;;;;;5075683;27;112747;-79
2021/10/28 00:21:49;;;;;;;;;6.00;6.00;;;;;;;;5088090;27;111828;-80
2021/10/28 00:24:15;;;;;;;;;5.25;4.25;;;;;;;;5064217;27;115794;-80
2021/10/28 00:26:42;;;;;;;;;5.00;5.00;;;;;;;;5083391;27;111959;-81
2021/10/28 00:29:08;;;;;;;;;6.00;6.00;;;;;;;;5084422;27;111885;-80
2021/10/28 00:31:35;;;;;;;;;7.75;5.50;;;;;;;;5082445;27;113961;-80
2021/10/28 00:34:00;;;;;;;;;5.25;5.25;;;;;;;;5064803;27;112241;-80
2021/10/28 00:36:26;;;;;;;;;8.75;4.50;;;;;;;;5083487;27;112454;-81
2021/10/28 00:38:52;;;;;;;;;4.75;4.75;;;;;;;;5083386;27;112488;-80
2021/10/28 00:41:22;;;;;;;;;5.75;5.00;;;;;;;;5083727;27;111988;-80
2021/10/28 00:43:51;;;;;;;;;4.00;4.00;;;;;;;;5086848;27;112908;-81
2021/10/28 00:46:18;;;;;;;;;5.75;5.00;;;;;;;;5084134;27;111737;-79
2021/10/28 00:48:44;;;;;;;;;6.00;6.00;;;;;;;;5083582;27;111885;-79
2021/10/28 00:51:09;;;;;;;;;6.50;6.00;;;;;;;;5082171;27;112354;-79
2021/10/28 00:53:34;;;;;;;;;6.50;6.50;;;;;;;;5083457;27;112294;-79
2021/10/28 00:55:59;;;;;;;;;5.50;5.50;;;;;;;;5083444;27;111805;-78
2021/10/28 00:58:26;;;;;;;;;8.00;6.00;;;;;;;;5082166;27;112378;-78
2021/10/28 01:00:51;;;;;;;;;8.00;5.75;;;;;;;;5084153;27;111737;-75
2021/10/28 01:03:17;;;;;;;;;6.00;6.00;;;;;;;;5083912;27;112087;-80
2021/10/28 01:05:42;;;;;;;;;7.00;6.00;;;;;;;;5086432;27;113515;-85
2021/10/28 01:08:08;;;;;;;;;5.00;5.00;;;;;;;;5084005;27;112454;-89
2021/10/28 01:10:35;;;;;;;;;6.50;5.00;;;;;;;;5082244;27;114141;-87
2021/10/28 01:13:00;;;;;;;;;9.00;6.00;;;;;;;;5083423;27;112012;-81
2021/10/28 01:15:26;;;;;;;;;7.50;7.50;;;;;;;;5063771;27;113112;-81
2021/10/28 01:17:52;;;;;;;;;10.50;7.00;;;;;;;;5082260;27;114206;-82
2021/10/28 01:20:17;;;;;;;;;7.75;7.50;;;;;;;;5083616;27;111841;-83
2021/10/28 01:22:43;;;;;;;;;8.25;5.75;;;;;;;;5083030;27;112451;-83
2021/10/28 01:25:10;;;;;;;;;12.25;10.00;;;;;;;;5085353;27;113791;-85
2021/10/28 01:27:35;;;;;;;;;8.00;6.00;;;;;;;;5063957;27;113931;-80
2021/10/28 01:30:00;;;;;;;;;13.00;8.25;;;;;;;;5082103;27;113566;-87
2021/10/28 01:32:25;;;;;;;;;1.75;1.75;;;;;;;;5084435;27;111859;-80
2021/10/28 01:34:51;;;;;;;;;11.50;9.00;;;;;;;;5083329;27;111706;-83
2021/10/28 01:37:16;;;;;;;;;8.25;6.00;;;;;;;;5082255;27;112317;-89
2021/10/28 01:39:41;;;;;;;;;10.25;6.50;;;;;;;;5084811;27;111762;-88
2021/10/28 01:42:09;;;;;;;;;9.75;8.50;;;;;;;;5083395;27;113961;-89
2021/10/28 01:44:35;;;;;;;;;8.00;6.00;;;;;;;;5082902;27;113729;-95
2021/10/28 01:47:00;;;;;;;;;6.00;6.00;;;;;;;;5087163;27;113139;-83
2021/10/28 01:49:27;;;;;;;;;8.75;7.50;;;;;;;;5082013;27;113726;-85
2021/10/28 01:51:56;;;;;;;;;8.50;8.50;;;;;;;;5063714;27;111811;-84
2021/10/28 01:54:22;;;;;;;;;9.50;8.50;;;;;;;;5082964;27;113237;-84
2021/10/28 01:56:47;;;;;;;;;9.00;8.25;;;;;;;;5081939;27;112367;-83
2021/10/28 01:59:13;;;;;;;;;11.75;11.75;;;;;;;;5082445;27;111878;-83
2021/10/28 02:01:38;;;;;;;;;11.50;10.50;;;;;;;;5082166;27;111877;-85
2021/10/28 02:04:04;;;;;;;;;11.25;8.25;;;;;;;;5062489;27;114349;-88
2021/10/28 02:06:30;;;;;;;;;8.25;7.50;;;;;;;;5082140;27;111741;-82
2021/10/28 02:08:55;;;;;;;;;11.25;8.75;;;;;;;;5085648;27;112187;-83
2021/10/28 02:11:21;;;;;;;;;12.50;11.00;;;;;;;;5082490;27;113468;-82
2021/10/28 02:13:46;;;;;;;;;9.00;9.00;;;;;;;;5063511;27;114469;-84
2021/10/28 02:16:14;;;;;;;;;9.25;9.25;;;;;;;;5081694;27;112425;-84
2021/10/28 02:18:40;;;;;;;;;10.50;9.00;;;;;;;;5083270;27;111971;-84
2021/10/28 02:21:05;;;;;;;;;14.50;8.25;;;;;;;;5064547;27;112906;-84
2021/10/28 02:23:31;;;;;;;;;11.00;11.00;;;;;;;;5081779;27;112368;-83
2021/10/28 02:25:56;;;;;;;;;11.75;9.25;;;;;;;;5082449;27;111782;-82
2021/10/28 02:28:21;;;;;;;;;9.50;7.00;;;;;;;;5082731;27;111774;-83
2021/10/28 02:30:46;;;;;;;;;9.25;8.50;;;;;;;;5085188;27;112421;-83
2021/10/28 02:33:12;;;;;;;;;11.00;9.00;;;;;;;;5082711;27;112123;-83
2021/10/28 02:35:37;;;;;;;;;11.25;9.50;;;;;;;;5081045;27;112335;-84
2021/10/28 02:38:03;;;;;;;;;12.00;9.25;;;;;;;;5082149;27;111782;-83
2021/10/28 02:40:28;;;;;;;;;11.25;8.00;;;;;;;;5081401;27;112297;-83
2021/10/28 02:42:54;;;;;;;;;11.75;11.75;;;;;;;;5080408;27;112714;-83
2021/10/28 02:45:19;;;;;;;;;14.00;11.00;;;;;;;;5081640;27;112074;-83
2021/10/28 02:47:44;;;;;;;;;11.75;8.25;;;;;;;;5082027;27;112139;-85
2021/10/28 02:50:10;;;;;;;;;9.75;8.75;;;;;;;;5081083;27;112876;-88
2021/10/28 02:52:35;;;;;;;;;12.00;9.00;;;;;;;;5069494;27;111945;-88
2021/10/28 02:55:02;;;;;;;;;12.00;10.75;;;;;;;;5066220;27;115590;-88
2021/10/28 02:57:33;;;;;;;;;9.25;7.00;;;;;;;;5085367;27;111729;-87
2021/10/28 02:59:59;;;;;;;;;11.75;10.00;;;;;;;;5085582;27;111934;-83
2021/10/28 03:02:25;;;;;;;;;13.50;12.25;;;;;;;;5065536;27;115576;-86
2021/10/28 03:04:50;;;;;;;;;12.00;11.25;;;;;;;;5085150;27;111933;-84
2021/10/28 03:07:15;;;;;;;;;14.00;12.00;;;;;;;;5085022;27;112231;-84
2021/10/28 03:09:41;;;;;;;;;12.75;11.75;;;;;;;;5083795;27;112918;-84
2021/10/28 03:12:07;;;;;;;;;12.75;12.75;;;;;;;;5085027;27;111953;-84
2021/10/28 03:19:35;;;;;;;;;16.50;11.00;;;;;;;;5084100;27;113729;-86
2021/10/28 03:27:29;;;;;;;;;12.00;11.00;;;;;;;;5085242;27;111787;-82
2021/10/28 03:29:55;;;;;;;;;14.75;11.50;;;;;;;;5083665;27;112802;-83
2021/10/28 03:32:21;;;;;;;;;15.00;12.00;;;;;;;;5084225;27;111972;-83
2021/10/28 03:34:48;;;;;;;;;16.50;13.75;;;;;;;;5087093;27;111868;-86
2021/10/28 03:37:38;;;;;;;;;17.25;12.50;;;;;;;;5085056;27;111988;-85
2021/10/28 03:54:17;;;;;;;;;19.25;13.00;;;;;;;;5048714;27;112056;-82
2021/10/28 04:17:15;;;;;;;;;17.50;16.25;;;;;;;;5084228;27;111780;-81
2021/10/28 04:30:17;;;;;;;;;16.50;15.75;;;;;;;;5083472;27;112941;-83
2021/10/28 04:32:44;;;;;;;;;14.25;14.25;;;;;;;;5082700;27;112723;-83
2021/10/28 04:35:09;;;;;;;;;16.00;14.00;;;;;;;;5083827;27;112297;-82
2021/10/28 04:37:38;;;;;;;;;14.00;12.00;;;;;;;;5083403;27;111981;-82
2021/10/28 04:40:05;;;;;;;;;12.00;11.50;;;;;;;;5063238;27;116055;-83
2021/10/28 04:42:30;;;;;;;;;15.75;14.00;;;;;;;;5082892;27;112261;-84
2021/10/28 04:44:58;;;;;;;;;18.00;14.50;;;;;;;;5067040;27;112994;-83
2021/10/28 04:47:23;;;;;;;;;20.50;18.75;;;;;;;;5083352;27;111642;-84
2021/10/28 04:49:48;;;;;;;;;19.50;16.50;;;;;;;;5083802;27;111888;-83
2021/10/28 04:52:14;;;;;;;;;19.50;17.00;;;;;;;;5063307;27;115197;-85
2021/10/28 04:54:39;;;;;;;;;15.00;15.00;;;;;;;;5083094;27;112046;-84
2021/10/28 04:57:05;;;;;;;;;22.00;16.00;;;;;;;;5082886;27;111874;-83
2021/10/28 04:59:30;;;;;;;;;18.25;16.00;;;;;;;;5081777;27;112363;-82
2021/10/28 05:01:57;;;;;;;;;25.67;21.00;;;;;;;;5082822;27;111603;-84
2021/10/28 05:04:22;;;;;;;;;17.25;17.25;;;;;;;;5083561;27;111950;-83
2021/10/28 05:06:47;;;;;;;;;17.25;16.75;;;;;;;;5086296;27;112534;-84
2021/10/28 05:09:16;;;;;;;;;19.75;15.00;;;;;;;;5082940;27;112231;-81
2021/10/28 05:11:44;;;;;;;;;21.25;17.75;;;;;;;;5062868;27;115647;-81
2021/10/28 05:14:09;;;;;;;;;20.25;16.50;;;;;;;;5081771;27;111794;-82
2021/10/28 05:16:34;;;;;;;;;16.67;14.00;;;;;;;;5082656;27;111938;-77
2021/10/28 05:19:00;;;;;;;;;21.50;18.25;;;;;;;;5081594;27;112313;-76
2021/10/28 05:21:25;;;;;;;;;39.00;35.00;;;;;;;;5082208;27;111868;-78
2021/10/28 05:23:50;;;;;;;;;31.67;29.00;;;;;;;;5082419;27;111797;-74
2021/10/28 05:26:15;;;;;;;;;29.67;24.67;;;;;;;;5081241;27;112273;-75
2021/10/28 17:48:08;;;;;;;;;16.00;14.25;;;;;;;;5129803;27;112200;-72
2021/10/28 17:50:34;;;;;;;;;16.50;16.25;;;;;;;;5080886;27;114748;-73
2021/10/28 17:55:25;;;;;;;;;15.00;14.50;;;;;;;;5007712;27;112753;-71
2021/10/28 17:57:50;;;;;;;;;15.75;14.25;;;;;;;;4984850;28;112879;-72
2021/10/28 18:00:17;;;;;;;;;16.00;12.50;;;;;;;;4986830;28;112331;-73
2021/10/28 18:02:42;;;;;;;;;15.00;15.00;;;;;;;;4986456;28;113100;-70
2021/10/28 18:05:08;;;;;;;;;15.75;13.75;;;;;;;;4985096;28;112348;-72
2021/10/28 18:07:33;;;;;;;;;14.25;13.75;;;;;;;;4978468;28;112061;-69
2021/10/28 18:09:59;;;;;;;;;19.75;17.00;;;;;;;;4975080;28;112029;-68
2021/10/28 18:12:25;;;;;;;;;21.25;20.00;;;;;;;;4975633;28;112336;-69
2021/10/28 18:14:50;;;;;;;;;18.25;15.25;;;;;;;;4973336;28;111731;-69
2021/10/28 18:17:18;;;;;;;;;16.00;14.25;;;;;;;;4962725;28;112964;-69
2021/10/28 18:19:43;;;;;;;;;20.25;14.75;;;;;;;;4954940;28;111951;-70
2021/10/28 18:22:08;;;;;;;;;16.75;16.00;;;;;;;;4957097;28;112288;-72
2021/10/28 18:24:34;;;;;;;;;24.00;23.75;;;;;;;;4980579;28;113228;-70
2021/10/28 18:26:59;;;;;;;;;13.50;11.00;;;;;;;;4985531;28;112215;-69
2021/10/28 18:29:24;;;;;;;;;17.25;13.75;;;;;;;;4981323;28;112042;-70
2021/10/28 18:31:50;;;;;;;;;18.50;15.50;;;;;;;;4984165;28;112440;-68
2021/10/28 18:34:15;;;;;;;;;14.00;13.75;;;;;;;;4976262;28;111946;-67
2021/10/28 18:36:41;;;;;;;;;15.00;15.00;;;;;;;;4977073;28;113227;-67
2021/10/28 18:39:08;;;;;;;;;21.00;15.25;;;;;;;;4975963;28;112091;-69
2021/10/28 18:41:34;;;;;;;;;15.25;15.25;;;;;;;;4976047;28;112968;-68
2021/10/28 18:43:59;;;;;;;;;18.00;14.00;;;;;;;;4974402;28;114160;-71
2021/10/28 18:46:25;;;;;;;;;14.50;14.25;;;;;;;;4964882;28;111894;-70
2021/10/28 18:48:52;;;;;;;;;18.25;15.75;;;;;;;;4962379;28;112856;-71
2021/10/28 18:51:18;;;;;;;;;15.50;14.00;;;;;;;;4963026;28;112535;-70
2021/10/28 18:53:45;;;;;;;;;18.00;16.75;;;;;;;;4965335;28;113078;-70
2021/10/28 18:56:11;;;;;;;;;18.00;15.50;;;;;;;;4965004;28;113515;-70
2021/10/28 18:58:37;;;;;;;;;20.75;16.50;;;;;;;;4968329;28;114406;-71
2021/10/28 19:01:02;;;;;;;;;13.25;12.50;;;;;;;;4966481;28;112011;-69
2021/10/28 19:03:29;;;;;;;;;13.75;13.75;;;;;;;;4963744;28;112663;-69
2021/10/28 19:05:56;;;;;;;;;17.75;14.75;;;;;;;;4956106;28;112262;-69
2021/10/28 19:08:21;;;;;;;;;18.25;14.25;;;;;;;;4952625;28;113364;-69
2021/10/28 19:10:47;;;;;;;;;22.75;17.75;;;;;;;;4946728;28;112515;-69
2021/10/28 19:13:12;;;;;;;;;16.50;13.50;;;;;;;;4952748;28;111821;-69
2021/10/28 19:15:38;;;;;;;;;16.75;16.00;;;;;;;;4950429;28;111845;-69
2021/10/28 19:18:05;;;;;;;;;18.75;15.25;;;;;;;;4951792;28;113157;-69
2021/10/28 19:20:31;;;;;;;;;14.25;14.25;;;;;;;;4957807;28;112291;-68
2021/10/28 19:22:56;;;;;;;;;18.50;17.25;;;;;;;;4961600;28;112310;-68
2021/10/28 19:25:21;;;;;;;;;22.50;19.00;;;;;;;;4962631;28;111863;-69
2021/10/28 19:27:49;;;;;;;;;19.25;18.50;;;;;;;;4962206;28;112242;-68
2021/10/28 19:32:46;;;;;;;;;19.75;14.50;;;;;;;;4958966;28;112172;-69
2021/10/28 19:35:11;;;;;;;;;19.75;16.50;;;;;;;;4923681;28;111918;-70
2021/10/28 19:45:09;;;;;;;;;21.00;19.50;;;;;;;;4971601;28;112307;-68
2021/10/28 19:47:48;;;;;;;;;16.50;15.50;;;;;;;;4982180;28;111785;-74
2021/10/28 19:50:13;;;;;;;;;14.75;12.50;;;;;;;;4978116;28;112395;-69
2021/10/28 19:52:42;;;;;;;;;8.25;7.75;;;;;;;;4964335;28;112250;-70
2021/10/28 19:55:09;;;;;;;;;12.75;12.75;;;;;;;;4995359;28;114847;-69
2021/10/28 19:57:40;;;;;;;;;19.00;17.25;;;;;;;;4980863;28;112548;-69
2021/10/28 20:21:10;;;;;;;;;15.00;12.75;;;;;;;;4981799;28;111976;-69
2021/10/28 20:23:35;;;;;;;;;15.75;15.00;;;;;;;;4980627;28;113032;-70
2021/10/28 20:26:01;;;;;;;;;25.50;20.50;;;;;;;;4983949;28;113019;-70
2021/10/28 20:28:27;;;;;;;;;20.00;17.00;;;;;;;;4977893;28;112136;-69
2021/10/28 20:30:56;;;;;;;;;17.75;16.25;;;;;;;;4980697;28;112414;-69
2021/10/28 20:33:22;;;;;;;;;17.25;17.00;;;;;;;;4980721;28;111865;-69
2021/10/28 20:36:05;;;;;;;;;16.00;14.00;;;;;;;;4980622;28;112052;-69
2021/10/28 20:38:30;;;;;;;;;18.25;14.50;;;;;;;;4979087;28;112757;-69
2021/10/28 20:40:56;;;;;;;;;27.00;22.00;;;;;;;;4978625;28;112091;-69
2021/10/28 20:43:21;;;;;;;;;16.00;15.25;;;;;;;;4981516;28;112853;-69
2021/10/28 20:45:47;;;;;;;;;19.75;19.00;;;;;;;;4980253;28;112391;-70
2021/10/28 20:48:12;;;;;;;;;23.25;19.50;;;;;;;;4984933;28;112181;-70
2021/10/28 20:50:38;;;;;;;;;18.00;16.50;;;;;;;;4980515;28;112957;-69
2021/10/28 20:53:03;;;;;;;;;14.00;13.50;;;;;;;;4978941;28;113217;-70
2021/10/28 20:55:30;;;;;;;;;20.25;18.00;;;;;;;;4980840;28;112911;-69
2021/10/28 20:57:55;;;;;;;;;25.25;21.50;;;;;;;;4973976;28;112792;-68
2021/10/28 21:00:22;;;;;;;;;24.25;21.25;;;;;;;;4980438;28;112501;-69
2021/10/28 21:02:48;;;;;;;;;24.00;23.00;;;;;;;;4981239;28;112775;-70
2021/10/28 21:05:18;;;;;;;;;17.50;17.50;;;;;;;;4980029;28;112498;-69
2021/10/28 21:07:43;;;;;;;;;20.50;18.00;;;;;;;;4980588;28;111742;-69
2021/10/28 21:10:09;;;;;;;;;17.75;15.00;;;;;;;;4983904;28;112098;-70
2021/10/28 21:12:35;;;;;;;;;18.00;16.50;;;;;;;;4962461;28;112326;-71
2021/10/28 21:15:00;;;;;;;;;21.00;17.00;;;;;;;;4980669;28;112380;-70
2021/10/28 21:17:26;;;;;;;;;24.50;20.00;;;;;;;;4961410;28;116035;-70
2021/10/28 21:19:51;;;;;;;;;18.50;18.50;;;;;;;;4977268;28;112789;-70
2021/10/28 21:22:17;;;;;;;;;24.00;16.25;;;;;;;;4980652;28;111801;-70
2021/10/28 21:24:45;;;;;;;;;23.75;18.00;;;;;;;;4979446;28;113546;-70
2021/10/28 21:27:11;;;;;;;;;24.00;19.25;;;;;;;;4973668;28;111909;-70
2021/10/28 21:29:37;;;;;;;;;20.75;19.50;;;;;;;;4980038;28;113687;-70
2021/10/28 21:32:03;;;;;;;;;21.25;19.75;;;;;;;;4983944;28;112733;-71
2021/10/28 21:34:29;;;;;;;;;20.00;19.00;;;;;;;;4974659;28;112097;-70
2021/10/28 21:36:54;;;;;;;;;24.00;22.00;;;;;;;;4979516;28;112951;-70
2021/10/28 21:39:20;;;;;;;;;25.75;23.00;;;;;;;;4961988;28;111964;-70
2021/10/28 21:41:45;;;;;;;;;25.75;20.00;;;;;;;;4980316;28;112011;-70
2021/10/28 21:44:12;;;;;;;;;24.75;21.50;;;;;;;;4979766;28;112440;-70
2021/10/28 21:46:37;;;;;;;;;25.00;21.25;;;;;;;;4977539;28;112571;-69
2021/10/28 21:49:03;;;;;;;;;27.50;24.50;;;;;;;;4977581;28;112058;-70
2021/10/28 21:51:28;;;;;;;;;29.75;23.25;;;;;;;;4972937;28;113032;-70
2021/10/28 21:53:55;;;;;;;;;21.25;19.25;;;;;;;;4983432;28;112085;-70
2021/10/28 21:56:30;;;;;;;;;24.75;21.00;;;;;;;;4978380;28;112451;-69
2021/10/28 22:07:05;;;;;;;;;27.00;25.50;;;;;;;;4906044;28;127243;-73
2021/10/28 22:25:57;;;;;;;;;23.75;22.50;;;;;;;;4939958;28;112389;-73
2021/10/28 22:28:22;;;;;;;;;26.00;17.00;;;;;;;;4940281;28;111957;-72
2021/10/28 22:30:47;;;;;;;;;19.25;19.00;;;;;;;;4940172;28;112274;-73
2021/10/28 22:33:13;;;;;;;;;22.50;19.00;;;;;;;;4939460;28;112540;-74
2021/10/28 22:38:06;;;;;;;;;23.75;20.00;;;;;;;;4943677;28;111684;-73
2021/10/28 22:40:34;;;;;;;;;22.00;19.25;;;;;;;;4941257;28;112021;-73
2021/10/28 22:43:00;;;;;;;;;21.75;17.00;;;;;;;;4943712;28;111919;-73
2021/10/28 22:45:25;;;;;;;;;25.25;21.25;;;;;;;;4942838;28;112855;-73
2021/10/28 22:47:51;;;;;;;;;30.25;26.00;;;;;;;;4943964;28;111941;-73
2021/10/28 22:50:16;;;;;;;;;22.75;18.50;;;;;;;;4943453;28;111822;-73
2021/10/28 22:52:45;;;;;;;;;25.50;23.25;;;;;;;;4942374;28;112457;-73
2021/10/28 22:55:12;;;;;;;;;21.75;20.00;;;;;;;;4943006;28;112127;-73
2021/10/28 22:58:43;;;;;;;;;19.00;17.50;;;;;;;;4925030;28;114520;-73
2021/10/28 23:13:58;;;;;;;;;20.00;18.00;;;;;;;;4942163;28;112294;-74
2021/10/28 23:21:35;;;;;;;;;23.25;19.00;;;;;;;;4942010;28;112487;-73
2021/10/28 23:24:06;;;;;;;;;22.00;19.50;;;;;;;;4946844;28;111863;-73
2021/10/28 23:26:31;;;;;;;;;18.00;17.50;;;;;;;;4936631;28;112625;-73
2021/10/28 23:28:57;;;;;;;;;19.00;18.00;;;;;;;;4942851;28;111763;-73
2021/10/28 23:31:22;;;;;;;;;21.25;16.50;;;;;;;;4943415;28;112966;-73
2021/10/28 23:33:47;;;;;;;;;19.50;18.75;;;;;;;;4924697;28;114221;-72
2021/10/28 23:36:13;;;;;;;;;21.00;18.50;;;;;;;;4943551;28;111749;-73
2021/10/28 23:38:41;;;;;;;;;19.00;17.75;;;;;;;;4943069;28;112751;-73
2021/10/28 23:41:06;;;;;;;;;21.50;16.00;;;;;;;;4941861;28;112444;-73
2021/10/28 23:43:32;;;;;;;;;18.00;16.00;;;;;;;;4942668;28;111982;-73
2021/10/28 23:45:57;;;;;;;;;16.00;15.00;;;;;;;;4945305;28;112029;-73
2021/10/28 23:48:22;;;;;;;;;22.25;19.25;;;;;;;;4942857;28;111835;-73
2021/10/28 23:50:48;;;;;;;;;18.25;15.50;;;;;;;;4943138;28;111866;-72
2021/10/28 23:53:13;;;;;;;;;21.00;16.25;;;;;;;;4941491;28;113864;-73
2021/10/28 23:55:38;;;;;;;;;19.50;17.00;;;;;;;;4942952;28;113357;-73
2021/10/28 23:58:06;;;;;;;;;24.00;19.00;;;;;;;;4942973;28;111999;-73
